sensor_id;sensor_type;location;lat;lon;timestamp;P1;durP1;ratioP1;P2;durP2;ratioP2
26269;SDS011;15937;50.612;6.656;2024-01-30T00:01:36;11.23;;;5.07;;
26269;SDS011;15937;50.612;6.656;2024-01-30T00:05:38;14.23;;;5.82;;
26269;SDS011;15937;50.612;6.656;2024-01-30T00:09:41;15.75;;;5.20;;
26269;SDS011;15937;50.612;6.656;2024-01-30T00:13:43;9.47;;;4.80;;
26269;SDS011;15937;50.612;6.656;2024-01-30T00:17:45;10.93;;;4.43;;
26269;SDS011;15937;50.612;6.656;2024-01-30T00:21:47;8.23;;;4.78;;
26269;SDS011;15937;50.612;6.656;2024-01-30T00:25:50;9.90;;;4.60;;
26269;SDS011;15937;50.612;6.656;2024-01-30T00:29:52;11.48;;;4.70;;
26269;SDS011;15937;50.612;6.656;2024-01-30T00:33:54;10.07;;;4.80;;
26269;SDS011;15937;50.612;6.656;2024-01-30T00:37:56;8.85;;;4.53;;
26269;SDS011;15937;50.612;6.656;2024-01-30T00:41:58;9.10;;;4.00;;
26269;SDS011;15937;50.612;6.656;2024-01-30T00:46:00;11.65;;;4.53;;
26269;SDS011;15937;50.612;6.656;2024-01-30T00:54:05;11.77;;;4.53;;
26269;SDS011;15937;50.612;6.656;2024-01-30T00:58:07;8.53;;;4.07;;
26269;SDS011;15937;50.612;6.656;2024-01-30T01:02:09;6.50;;;3.87;;
26269;SDS011;15937;50.612;6.656;2024-01-30T01:06:14;9.48;;;4.18;;
26269;SDS011;15937;50.612;6.656;2024-01-30T01:10:17;9.02;;;3.58;;
26269;SDS011;15937;50.612;6.656;2024-01-30T01:14:19;9.20;;;4.32;;
26269;SDS011;15937;50.612;6.656;2024-01-30T01:18:21;8.40;;;3.78;;
26269;SDS011;15937;50.612;6.656;2024-01-30T01:22:23;7.93;;;4.00;;
26269;SDS011;15937;50.612;6.656;2024-01-30T01:26:25;11.83;;;4.43;;
26269;SDS011;15937;50.612;6.656;2024-01-30T01:30:27;10.32;;;3.83;;
26269;SDS011;15937;50.612;6.656;2024-01-30T01:34:30;8.95;;;4.10;;
26269;SDS011;15937;50.612;6.656;2024-01-30T02:00:15;7.20;;;3.95;;
26269;SDS011;15937;50.612;6.656;2024-01-30T02:08:23;6.47;;;3.67;;
26269;SDS011;15937;50.612;6.656;2024-01-30T02:12:26;10.30;;;4.18;;
26269;SDS011;15937;50.612;6.656;2024-01-30T02:16:27;11.93;;;4.43;;
26269;SDS011;15937;50.612;6.656;2024-01-30T02:20:30;9.20;;;3.58;;
26269;SDS011;15937;50.612;6.656;2024-01-30T02:24:33;6.72;;;3.97;;
26269;SDS011;15937;50.612;6.656;2024-01-30T02:28:35;12.52;;;4.65;;
26269;SDS011;15937;50.612;6.656;2024-01-30T02:32:37;10.70;;;3.43;;
26269;SDS011;15937;50.612;6.656;2024-01-30T02:36:45;6.80;;;3.90;;
26269;SDS011;15937;50.612;6.656;2024-01-30T02:40:47;7.38;;;3.63;;
26269;SDS011;15937;50.612;6.656;2024-01-30T02:44:48;8.80;;;3.40;;
26269;SDS011;15937;50.612;6.656;2024-01-30T02:48:50;5.47;;;3.45;;
26269;SDS011;15937;50.612;6.656;2024-01-30T02:52:53;5.67;;;3.70;;
26269;SDS011;15937;50.612;6.656;2024-01-30T02:56:55;6.77;;;3.40;;
26269;SDS011;15937;50.612;6.656;2024-01-30T03:00:57;7.53;;;3.57;;
26269;SDS011;15937;50.612;6.656;2024-01-30T03:04:59;8.77;;;4.63;;
26269;SDS011;15937;50.612;6.656;2024-01-30T03:09:01;6.10;;;3.30;;
26269;SDS011;15937;50.612;6.656;2024-01-30T03:13:04;13.40;;;3.63;;
26269;SDS011;15937;50.612;6.656;2024-01-30T03:17:05;8.55;;;3.35;;
26269;SDS011;15937;50.612;6.656;2024-01-30T03:21:07;8.77;;;3.45;;
26269;SDS011;15937;50.612;6.656;2024-01-30T03:25:11;14.00;;;4.20;;
26269;SDS011;15937;50.612;6.656;2024-01-30T03:29:12;6.32;;;3.55;;
26269;SDS011;15937;50.612;6.656;2024-01-30T03:33:15;8.25;;;4.38;;
26269;SDS011;15937;50.612;6.656;2024-01-30T03:37:17;7.10;;;3.72;;
26269;SDS011;15937;50.612;6.656;2024-01-30T03:41:19;7.57;;;3.70;;
26269;SDS011;15937;50.612;6.656;2024-01-30T03:45:21;6.93;;;3.50;;
26269;SDS011;15937;50.612;6.656;2024-01-30T03:49:22;14.25;;;4.53;;
26269;SDS011;15937;50.612;6.656;2024-01-30T03:53:25;6.90;;;3.83;;
26269;SDS011;15937;50.612;6.656;2024-01-30T03:57:27;9.90;;;4.13;;
26269;SDS011;15937;50.612;6.656;2024-01-30T04:01:28;6.82;;;4.07;;
26269;SDS011;15937;50.612;6.656;2024-01-30T04:05:31;11.43;;;4.57;;
26269;SDS011;15937;50.612;6.656;2024-01-30T04:09:33;8.40;;;3.83;;
26269;SDS011;15937;50.612;6.656;2024-01-30T04:13:35;7.60;;;4.13;;
26269;SDS011;15937;50.612;6.656;2024-01-30T04:17:37;9.18;;;3.88;;
26269;SDS011;15937;50.612;6.656;2024-01-30T04:21:40;8.17;;;4.60;;
26269;SDS011;15937;50.612;6.656;2024-01-30T04:25:42;11.98;;;4.30;;
26269;SDS011;15937;50.612;6.656;2024-01-30T04:29:45;11.95;;;4.63;;
26269;SDS011;15937;50.612;6.656;2024-01-30T04:33:47;9.77;;;4.80;;
26269;SDS011;15937;50.612;6.656;2024-01-30T04:37:53;13.10;;;5.00;;
26269;SDS011;15937;50.612;6.656;2024-01-30T04:41:55;13.27;;;4.88;;
26269;SDS011;15937;50.612;6.656;2024-01-30T04:45:57;11.23;;;4.60;;
26269;SDS011;15937;50.612;6.656;2024-01-30T04:49:59;8.25;;;4.47;;
26269;SDS011;15937;50.612;6.656;2024-01-30T04:54:01;9.57;;;5.50;;
26269;SDS011;15937;50.612;6.656;2024-01-30T04:58:03;9.07;;;4.82;;
26269;SDS011;15937;50.612;6.656;2024-01-30T05:02:06;10.73;;;5.45;;
26269;SDS011;15937;50.612;6.656;2024-01-30T05:06:08;9.43;;;6.15;;
26269;SDS011;15937;50.612;6.656;2024-01-30T05:10:10;16.27;;;6.07;;
26269;SDS011;15937;50.612;6.656;2024-01-30T05:14:13;10.27;;;5.53;;
26269;SDS011;15937;50.612;6.656;2024-01-30T05:18:19;13.57;;;6.40;;
26269;SDS011;15937;50.612;6.656;2024-01-30T05:22:21;13.50;;;6.20;;
26269;SDS011;15937;50.612;6.656;2024-01-30T05:26:23;10.55;;;6.38;;
26269;SDS011;15937;50.612;6.656;2024-01-30T05:30:25;13.80;;;6.07;;
26269;SDS011;15937;50.612;6.656;2024-01-30T05:34:27;16.25;;;6.57;;
26269;SDS011;15937;50.612;6.656;2024-01-30T05:38:31;19.85;;;6.47;;
26269;SDS011;15937;50.612;6.656;2024-01-30T05:42:33;15.47;;;7.40;;
26269;SDS011;15937;50.612;6.656;2024-01-30T05:46:35;11.77;;;5.90;;
26269;SDS011;15937;50.612;6.656;2024-01-30T05:50:37;15.68;;;6.72;;
26269;SDS011;15937;50.612;6.656;2024-01-30T05:54:39;13.15;;;6.75;;
26269;SDS011;15937;50.612;6.656;2024-01-30T05:58:41;13.57;;;7.37;;
26269;SDS011;15937;50.612;6.656;2024-01-30T06:02:44;14.85;;;6.55;;
26269;SDS011;15937;50.612;6.656;2024-01-30T06:06:46;17.35;;;6.97;;
26269;SDS011;15937;50.612;6.656;2024-01-30T06:10:48;14.00;;;7.67;;
26269;SDS011;15937;50.612;6.656;2024-01-30T06:14:50;13.65;;;7.18;;
26269;SDS011;15937;50.612;6.656;2024-01-30T06:18:54;13.15;;;7.40;;
26269;SDS011;15937;50.612;6.656;2024-01-30T06:22:56;12.52;;;7.10;;
26269;SDS011;15937;50.612;6.656;2024-01-30T06:26:58;13.82;;;6.93;;
26269;SDS011;15937;50.612;6.656;2024-01-30T06:31:01;17.45;;;7.22;;
26269;SDS011;15937;50.612;6.656;2024-01-30T06:35:03;13.38;;;5.95;;
26269;SDS011;15937;50.612;6.656;2024-01-30T06:39:06;14.35;;;6.68;;
26269;SDS011;15937;50.612;6.656;2024-01-30T06:43:09;20.13;;;6.50;;
26269;SDS011;15937;50.612;6.656;2024-01-30T06:47:11;11.10;;;6.77;;
26269;SDS011;15937;50.612;6.656;2024-01-30T06:51:13;12.23;;;6.80;;
26269;SDS011;15937;50.612;6.656;2024-01-30T06:55:18;16.10;;;6.85;;
26269;SDS011;15937;50.612;6.656;2024-01-30T06:59:20;11.45;;;5.03;;
26269;SDS011;15937;50.612;6.656;2024-01-30T07:03:22;8.63;;;5.45;;
26269;SDS011;15937;50.612;6.656;2024-01-30T07:07:24;10.97;;;5.93;;
26269;SDS011;15937;50.612;6.656;2024-01-30T07:11:26;12.97;;;6.90;;
26269;SDS011;15937;50.612;6.656;2024-01-30T07:15:30;13.32;;;6.20;;
26269;SDS011;15937;50.612;6.656;2024-01-30T07:19:32;12.63;;;6.77;;
26269;SDS011;15937;50.612;6.656;2024-01-30T07:23:34;14.32;;;6.70;;
26269;SDS011;15937;50.612;6.656;2024-01-30T07:27:36;13.13;;;6.43;;
26269;SDS011;15937;50.612;6.656;2024-01-30T07:31:38;14.23;;;5.95;;
26269;SDS011;15937;50.612;6.656;2024-01-30T07:35:41;11.55;;;6.05;;
26269;SDS011;15937;50.612;6.656;2024-01-30T07:39:44;12.27;;;6.20;;
26269;SDS011;15937;50.612;6.656;2024-01-30T07:43:47;10.95;;;5.35;;
26269;SDS011;15937;50.612;6.656;2024-01-30T07:47:50;12.77;;;5.93;;
26269;SDS011;15937;50.612;6.656;2024-01-30T07:51:52;14.13;;;5.82;;
26269;SDS011;15937;50.612;6.656;2024-01-30T07:55:55;8.27;;;5.53;;
26269;SDS011;15937;50.612;6.656;2024-01-30T07:59:57;10.93;;;5.37;;
26269;SDS011;15937;50.612;6.656;2024-01-30T08:04:00;7.97;;;5.27;;
26269;SDS011;15937;50.612;6.656;2024-01-30T08:08:05;12.77;;;4.85;;
26269;SDS011;15937;50.612;6.656;2024-01-30T08:12:08;16.60;;;5.05;;
26269;SDS011;15937;50.612;6.656;2024-01-30T08:16:10;11.90;;;5.10;;
26269;SDS011;15937;50.612;6.656;2024-01-30T08:20:20;7.32;;;4.05;;
26269;SDS011;15937;50.612;6.656;2024-01-30T08:24:33;12.85;;;4.68;;
26269;SDS011;15937;50.612;6.656;2024-01-30T08:28:35;11.93;;;4.10;;
26269;SDS011;15937;50.612;6.656;2024-01-30T08:32:51;10.30;;;4.28;;
26269;SDS011;15937;50.612;6.656;2024-01-30T08:40:56;10.32;;;4.93;;
26269;SDS011;15937;50.612;6.656;2024-01-30T08:44:58;10.15;;;4.63;;
26269;SDS011;15937;50.612;6.656;2024-01-30T08:49:00;9.35;;;4.60;;
26269;SDS011;15937;50.612;6.656;2024-01-30T08:53:02;15.25;;;5.05;;
26269;SDS011;15937;50.612;6.656;2024-01-30T08:57:05;8.00;;;4.30;;
26269;SDS011;15937;50.612;6.656;2024-01-30T09:01:08;7.53;;;4.65;;
26269;SDS011;15937;50.612;6.656;2024-01-30T09:05:10;12.43;;;5.07;;
26269;SDS011;15937;50.612;6.656;2024-01-30T09:09:12;13.88;;;5.47;;
26269;SDS011;15937;50.612;6.656;2024-01-30T09:13:16;13.68;;;5.32;;
26269;SDS011;15937;50.612;6.656;2024-01-30T09:17:18;12.82;;;5.53;;
26269;SDS011;15937;50.612;6.656;2024-01-30T09:21:20;13.03;;;5.70;;
26269;SDS011;15937;50.612;6.656;2024-01-30T09:25:22;18.55;;;4.93;;
26269;SDS011;15937;50.612;6.656;2024-01-30T09:29:24;13.75;;;5.05;;
26269;SDS011;15937;50.612;6.656;2024-01-30T09:33:30;13.85;;;6.03;;
26269;SDS011;15937;50.612;6.656;2024-01-30T09:37:32;14.83;;;5.57;;
26269;SDS011;15937;50.612;6.656;2024-01-30T09:41:36;17.03;;;5.60;;
26269;SDS011;15937;50.612;6.656;2024-01-30T09:45:56;11.48;;;5.47;;
26269;SDS011;15937;50.612;6.656;2024-01-30T09:49:59;10.38;;;5.00;;
26269;SDS011;15937;50.612;6.656;2024-01-30T09:54:04;16.15;;;5.55;;
26269;SDS011;15937;50.612;6.656;2024-01-30T09:58:06;8.73;;;4.93;;
26269;SDS011;15937;50.612;6.656;2024-01-30T10:06:11;16.70;;;5.15;;
26269;SDS011;15937;50.612;6.656;2024-01-30T10:10:14;7.73;;;4.80;;
26269;SDS011;15937;50.612;6.656;2024-01-30T10:14:19;9.45;;;4.82;;
26269;SDS011;15937;50.612;6.656;2024-01-30T10:18:24;9.67;;;5.17;;
26269;SDS011;15937;50.612;6.656;2024-01-30T10:22:26;16.02;;;5.95;;
26269;SDS011;15937;50.612;6.656;2024-01-30T10:26:28;15.05;;;6.03;;
26269;SDS011;15937;50.612;6.656;2024-01-30T10:30:30;9.98;;;5.20;;
26269;SDS011;15937;50.612;6.656;2024-01-30T10:34:33;11.75;;;5.88;;
26269;SDS011;15937;50.612;6.656;2024-01-30T10:38:36;22.45;;;5.97;;
26269;SDS011;15937;50.612;6.656;2024-01-30T10:42:42;13.80;;;4.95;;
26269;SDS011;15937;50.612;6.656;2024-01-30T10:46:45;11.55;;;4.78;;
26269;SDS011;15937;50.612;6.656;2024-01-30T10:50:58;11.63;;;5.20;;
26269;SDS011;15937;50.612;6.656;2024-01-30T10:55:02;14.18;;;5.68;;
26269;SDS011;15937;50.612;6.656;2024-01-30T10:59:08;17.58;;;5.68;;
26269;SDS011;15937;50.612;6.656;2024-01-30T11:03:12;12.40;;;5.15;;
26269;SDS011;15937;50.612;6.656;2024-01-30T11:07:18;13.75;;;5.03;;
26269;SDS011;15937;50.612;6.656;2024-01-30T11:11:25;13.68;;;5.30;;
26269;SDS011;15937;50.612;6.656;2024-01-30T11:15:27;14.90;;;4.68;;
26269;SDS011;15937;50.612;6.656;2024-01-30T11:19:32;14.48;;;4.78;;
26269;SDS011;15937;50.612;6.656;2024-01-30T11:23:35;9.73;;;4.78;;
26269;SDS011;15937;50.612;6.656;2024-01-30T11:27:38;10.73;;;4.50;;
26269;SDS011;15937;50.612;6.656;2024-01-30T11:31:40;11.43;;;4.60;;
26269;SDS011;15937;50.612;6.656;2024-01-30T11:35:52;13.60;;;4.93;;
26269;SDS011;15937;50.612;6.656;2024-01-30T11:39:54;14.50;;;4.77;;
26269;SDS011;15937;50.612;6.656;2024-01-30T11:43:57;9.85;;;4.93;;
26269;SDS011;15937;50.612;6.656;2024-01-30T11:48:00;13.38;;;4.70;;
26269;SDS011;15937;50.612;6.656;2024-01-30T11:52:05;12.75;;;5.22;;
26269;SDS011;15937;50.612;6.656;2024-01-30T11:56:08;14.90;;;4.90;;
26269;SDS011;15937;50.612;6.656;2024-01-30T12:00:14;14.20;;;4.78;;
26269;SDS011;15937;50.612;6.656;2024-01-30T12:04:16;19.15;;;4.93;;
26269;SDS011;15937;50.612;6.656;2024-01-30T12:08:19;12.10;;;4.60;;
26269;SDS011;15937;50.612;6.656;2024-01-30T12:12:22;18.67;;;7.07;;
26269;SDS011;15937;50.612;6.656;2024-01-30T12:16:26;11.52;;;4.40;;
26269;SDS011;15937;50.612;6.656;2024-01-30T12:20:29;16.75;;;4.57;;
26269;SDS011;15937;50.612;6.656;2024-01-30T12:24:31;14.03;;;4.00;;
26269;SDS011;15937;50.612;6.656;2024-01-30T12:28:35;15.48;;;4.47;;
26269;SDS011;15937;50.612;6.656;2024-01-30T12:32:38;21.27;;;6.97;;
26269;SDS011;15937;50.612;6.656;2024-01-30T12:36:43;10.05;;;4.35;;
26269;SDS011;15937;50.612;6.656;2024-01-30T12:40:45;13.10;;;4.30;;
26269;SDS011;15937;50.612;6.656;2024-01-30T12:44:48;17.83;;;4.30;;
26269;SDS011;15937;50.612;6.656;2024-01-30T12:48:50;17.45;;;4.20;;
26269;SDS011;15937;50.612;6.656;2024-01-30T12:52:53;12.47;;;4.30;;
26269;SDS011;15937;50.612;6.656;2024-01-30T12:56:54;18.00;;;5.30;;
26269;SDS011;15937;50.612;6.656;2024-01-30T13:05:00;10.48;;;4.43;;
26269;SDS011;15937;50.612;6.656;2024-01-30T13:09:02;10.02;;;3.83;;
26269;SDS011;15937;50.612;6.656;2024-01-30T13:13:04;11.87;;;5.10;;
26269;SDS011;15937;50.612;6.656;2024-01-30T13:17:14;11.82;;;5.05;;
26269;SDS011;15937;50.612;6.656;2024-01-30T13:21:16;14.70;;;4.53;;
26269;SDS011;15937;50.612;6.656;2024-01-30T13:25:18;12.07;;;4.57;;
26269;SDS011;15937;50.612;6.656;2024-01-30T13:29:20;11.83;;;4.33;;
26269;SDS011;15937;50.612;6.656;2024-01-30T13:33:23;12.83;;;5.20;;
26269;SDS011;15937;50.612;6.656;2024-01-30T13:37:24;19.85;;;5.43;;
26269;SDS011;15937;50.612;6.656;2024-01-30T13:41:26;9.90;;;4.63;;
26269;SDS011;15937;50.612;6.656;2024-01-30T13:45:28;9.60;;;4.78;;
26269;SDS011;15937;50.612;6.656;2024-01-30T13:49:31;9.43;;;4.95;;
26269;SDS011;15937;50.612;6.656;2024-01-30T13:53:33;14.77;;;4.72;;
26269;SDS011;15937;50.612;6.656;2024-01-30T13:57:36;18.88;;;5.55;;
26269;SDS011;15937;50.612;6.656;2024-01-30T14:01:38;14.90;;;5.53;;
26269;SDS011;15937;50.612;6.656;2024-01-30T14:05:40;12.23;;;4.90;;
26269;SDS011;15937;50.612;6.656;2024-01-30T14:09:42;8.40;;;4.10;;
26269;SDS011;15937;50.612;6.656;2024-01-30T14:13:45;8.38;;;4.32;;
26269;SDS011;15937;50.612;6.656;2024-01-30T14:17:47;9.80;;;4.40;;
26269;SDS011;15937;50.612;6.656;2024-01-30T14:21:51;13.95;;;4.47;;
26269;SDS011;15937;50.612;6.656;2024-01-30T14:25:53;15.87;;;4.73;;
26269;SDS011;15937;50.612;6.656;2024-01-30T14:29:56;11.85;;;4.30;;
26269;SDS011;15937;50.612;6.656;2024-01-30T14:33:58;15.15;;;4.90;;
26269;SDS011;15937;50.612;6.656;2024-01-30T14:38:00;8.90;;;4.50;;
26269;SDS011;15937;50.612;6.656;2024-01-30T14:42:03;12.55;;;4.03;;
26269;SDS011;15937;50.612;6.656;2024-01-30T14:46:05;14.68;;;5.43;;
26269;SDS011;15937;50.612;6.656;2024-01-30T14:50:08;7.70;;;3.97;;
26269;SDS011;15937;50.612;6.656;2024-01-30T14:54:11;7.40;;;3.63;;
26269;SDS011;15937;50.612;6.656;2024-01-30T14:58:14;15.18;;;7.22;;
26269;SDS011;15937;50.612;6.656;2024-01-30T15:02:16;31.00;;;13.77;;
26269;SDS011;15937;50.612;6.656;2024-01-30T15:06:22;19.77;;;9.73;;
26269;SDS011;15937;50.612;6.656;2024-01-30T15:10:25;13.05;;;4.03;;
26269;SDS011;15937;50.612;6.656;2024-01-30T15:14:27;12.27;;;4.88;;
26269;SDS011;15937;50.612;6.656;2024-01-30T15:18:29;11.55;;;3.90;;
26269;SDS011;15937;50.612;6.656;2024-01-30T15:22:33;12.15;;;4.65;;
26269;SDS011;15937;50.612;6.656;2024-01-30T15:26:37;9.73;;;4.95;;
26269;SDS011;15937;50.612;6.656;2024-01-30T15:30:40;10.93;;;4.47;;
26269;SDS011;15937;50.612;6.656;2024-01-30T15:34:47;11.50;;;4.72;;
26269;SDS011;15937;50.612;6.656;2024-01-30T15:38:49;9.63;;;4.27;;
26269;SDS011;15937;50.612;6.656;2024-01-30T15:42:51;10.98;;;4.40;;
26269;SDS011;15937;50.612;6.656;2024-01-30T15:46:53;7.28;;;4.10;;
26269;SDS011;15937;50.612;6.656;2024-01-30T15:50:55;17.33;;;4.88;;
26269;SDS011;15937;50.612;6.656;2024-01-30T15:54:56;8.20;;;4.60;;
26269;SDS011;15937;50.612;6.656;2024-01-30T15:58:58;9.27;;;4.93;;
26269;SDS011;15937;50.612;6.656;2024-01-30T16:03:01;10.37;;;4.73;;
26269;SDS011;15937;50.612;6.656;2024-01-30T16:07:06;17.40;;;6.13;;
26269;SDS011;15937;50.612;6.656;2024-01-30T16:11:08;12.67;;;5.67;;
26269;SDS011;15937;50.612;6.656;2024-01-30T16:15:11;11.73;;;4.65;;
26269;SDS011;15937;50.612;6.656;2024-01-30T16:19:14;8.93;;;4.72;;
26269;SDS011;15937;50.612;6.656;2024-01-30T16:23:16;13.47;;;5.80;;
26269;SDS011;15937;50.612;6.656;2024-01-30T16:27:18;16.00;;;5.70;;
26269;SDS011;15937;50.612;6.656;2024-01-30T16:31:20;12.93;;;6.00;;
26269;SDS011;15937;50.612;6.656;2024-01-30T16:35:22;18.70;;;6.30;;
26269;SDS011;15937;50.612;6.656;2024-01-30T16:39:44;15.68;;;6.15;;
26269;SDS011;15937;50.612;6.656;2024-01-30T16:43:46;10.43;;;5.65;;
26269;SDS011;15937;50.612;6.656;2024-01-30T16:47:49;16.83;;;5.35;;
26269;SDS011;15937;50.612;6.656;2024-01-30T16:51:51;12.43;;;6.05;;
26269;SDS011;15937;50.612;6.656;2024-01-30T16:55:53;14.30;;;6.50;;
26269;SDS011;15937;50.612;6.656;2024-01-30T16:59:56;15.30;;;6.85;;
26269;SDS011;15937;50.612;6.656;2024-01-30T17:03:59;15.77;;;6.50;;
26269;SDS011;15937;50.612;6.656;2024-01-30T17:08:02;16.42;;;7.45;;
26269;SDS011;15937;50.612;6.656;2024-01-30T17:12:05;18.88;;;7.43;;
26269;SDS011;15937;50.612;6.656;2024-01-30T17:16:08;19.93;;;7.37;;
26269;SDS011;15937;50.612;6.656;2024-01-30T17:20:14;23.52;;;8.60;;
26269;SDS011;15937;50.612;6.656;2024-01-30T17:24:17;25.98;;;7.57;;
26269;SDS011;15937;50.612;6.656;2024-01-30T17:28:20;15.43;;;6.97;;
26269;SDS011;15937;50.612;6.656;2024-01-30T17:32:22;10.93;;;5.93;;
26269;SDS011;15937;50.612;6.656;2024-01-30T17:36:27;13.77;;;6.55;;
26269;SDS011;15937;50.612;6.656;2024-01-30T17:40:29;16.77;;;7.95;;
26269;SDS011;15937;50.612;6.656;2024-01-30T17:44:31;10.02;;;5.53;;
26269;SDS011;15937;50.612;6.656;2024-01-30T17:48:38;7.78;;;3.95;;
26269;SDS011;15937;50.612;6.656;2024-01-30T17:52:45;13.57;;;4.18;;
26269;SDS011;15937;50.612;6.656;2024-01-30T17:56:47;7.63;;;3.37;;
26269;SDS011;15937;50.612;6.656;2024-01-30T18:00:49;10.38;;;4.00;;
26269;SDS011;15937;50.612;6.656;2024-01-30T18:04:51;9.93;;;3.22;;
26269;SDS011;15937;50.612;6.656;2024-01-30T18:08:54;16.45;;;3.95;;
26269;SDS011;15937;50.612;6.656;2024-01-30T18:12:59;4.47;;;3.00;;
26269;SDS011;15937;50.612;6.656;2024-01-30T18:17:05;5.40;;;2.95;;
26269;SDS011;15937;50.612;6.656;2024-01-30T18:25:10;4.85;;;2.60;;
26269;SDS011;15937;50.612;6.656;2024-01-30T18:29:13;9.02;;;3.17;;
26269;SDS011;15937;50.612;6.656;2024-01-30T18:33:15;10.85;;;2.50;;
26269;SDS011;15937;50.612;6.656;2024-01-30T18:37:17;7.78;;;2.85;;
26269;SDS011;15937;50.612;6.656;2024-01-30T18:41:19;5.68;;;2.80;;
26269;SDS011;15937;50.612;6.656;2024-01-30T18:45:22;5.60;;;1.90;;
26269;SDS011;15937;50.612;6.656;2024-01-30T18:53:27;5.63;;;2.33;;
26269;SDS011;15937;50.612;6.656;2024-01-30T18:57:31;5.90;;;2.53;;
26269;SDS011;15937;50.612;6.656;2024-01-30T19:01:34;3.57;;;2.03;;
26269;SDS011;15937;50.612;6.656;2024-01-30T19:05:36;6.72;;;1.98;;
26269;SDS011;15937;50.612;6.656;2024-01-30T19:09:39;3.50;;;1.83;;
26269;SDS011;15937;50.612;6.656;2024-01-30T19:13:41;5.82;;;1.40;;
26269;SDS011;15937;50.612;6.656;2024-01-30T19:17:43;4.00;;;1.60;;
26269;SDS011;15937;50.612;6.656;2024-01-30T19:21:45;4.27;;;1.87;;
26269;SDS011;15937;50.612;6.656;2024-01-30T19:25:48;2.30;;;1.70;;
26269;SDS011;15937;50.612;6.656;2024-01-30T19:29:50;6.47;;;1.67;;
26269;SDS011;15937;50.612;6.656;2024-01-30T19:37:56;7.53;;;2.03;;
26269;SDS011;15937;50.612;6.656;2024-01-30T19:41:58;5.25;;;2.67;;
26269;SDS011;15937;50.612;6.656;2024-01-30T19:46:01;15.03;;;6.30;;
26269;SDS011;15937;50.612;6.656;2024-01-30T19:50:03;10.65;;;2.45;;
26269;SDS011;15937;50.612;6.656;2024-01-30T19:54:08;11.48;;;4.50;;
26269;SDS011;15937;50.612;6.656;2024-01-30T19:58:19;5.68;;;2.72;;
26269;SDS011;15937;50.612;6.656;2024-01-30T20:02:21;6.85;;;2.20;;
26269;SDS011;15937;50.612;6.656;2024-01-30T20:06:26;19.55;;;7.40;;
26269;SDS011;15937;50.612;6.656;2024-01-30T20:10:28;6.40;;;2.40;;
26269;SDS011;15937;50.612;6.656;2024-01-30T20:14:30;9.17;;;3.50;;
26269;SDS011;15937;50.612;6.656;2024-01-30T20:18:32;52.27;;;21.03;;
26269;SDS011;15937;50.612;6.656;2024-01-30T20:22:35;37.88;;;9.57;;
26269;SDS011;15937;50.612;6.656;2024-01-30T20:30:40;7.40;;;2.63;;
26269;SDS011;15937;50.612;6.656;2024-01-30T20:34:42;7.00;;;3.03;;
26269;SDS011;15937;50.612;6.656;2024-01-30T20:38:47;6.53;;;2.03;;
26269;SDS011;15937;50.612;6.656;2024-01-30T20:42:56;5.43;;;1.98;;
26269;SDS011;15937;50.612;6.656;2024-01-30T20:46:59;18.17;;;2.63;;
26269;SDS011;15937;50.612;6.656;2024-01-30T20:51:01;7.63;;;2.90;;
26269;SDS011;15937;50.612;6.656;2024-01-30T20:55:03;5.97;;;2.03;;
26269;SDS011;15937;50.612;6.656;2024-01-30T20:59:05;9.82;;;2.25;;
26269;SDS011;15937;50.612;6.656;2024-01-30T21:03:07;6.32;;;1.60;;
26269;SDS011;15937;50.612;6.656;2024-01-30T21:07:09;8.90;;;2.17;;
26269;SDS011;15937;50.612;6.656;2024-01-30T21:11:25;8.13;;;3.38;;
26269;SDS011;15937;50.612;6.656;2024-01-30T21:15:29;8.85;;;1.80;;
26269;SDS011;15937;50.612;6.656;2024-01-30T21:19:31;10.20;;;1.80;;
26269;SDS011;15937;50.612;6.656;2024-01-30T21:23:34;9.65;;;1.65;;
26269;SDS011;15937;50.612;6.656;2024-01-30T21:27:36;11.23;;;2.60;;
26269;SDS011;15937;50.612;6.656;2024-01-30T21:31:46;10.63;;;2.70;;
26269;SDS011;15937;50.612;6.656;2024-01-30T21:35:48;5.00;;;1.50;;
26269;SDS011;15937;50.612;6.656;2024-01-30T21:39:51;3.00;;;1.70;;
26269;SDS011;15937;50.612;6.656;2024-01-30T21:43:55;5.90;;;1.40;;
26269;SDS011;15937;50.612;6.656;2024-01-30T21:47:57;3.97;;;1.88;;
26269;SDS011;15937;50.612;6.656;2024-01-30T21:51:59;7.90;;;3.00;;
26269;SDS011;15937;50.612;6.656;2024-01-30T21:56:06;6.07;;;2.08;;
26269;SDS011;15937;50.612;6.656;2024-01-30T22:04:12;6.90;;;1.73;;
26269;SDS011;15937;50.612;6.656;2024-01-30T22:08:14;6.53;;;2.40;;
26269;SDS011;15937;50.612;6.656;2024-01-30T22:12:16;5.53;;;3.10;;
26269;SDS011;15937;50.612;6.656;2024-01-30T22:16:18;3.72;;;1.45;;
26269;SDS011;15937;50.612;6.656;2024-01-30T22:20:20;8.10;;;2.37;;
26269;SDS011;15937;50.612;6.656;2024-01-30T22:24:22;6.25;;;1.77;;
26269;SDS011;15937;50.612;6.656;2024-01-30T22:28:24;7.50;;;2.40;;
26269;SDS011;15937;50.612;6.656;2024-01-30T22:32:27;7.57;;;2.28;;
26269;SDS011;15937;50.612;6.656;2024-01-30T22:36:30;5.38;;;2.30;;
26269;SDS011;15937;50.612;6.656;2024-01-30T22:40:33;4.60;;;2.65;;
26269;SDS011;15937;50.612;6.656;2024-01-30T22:44:36;3.95;;;2.20;;
26269;SDS011;15937;50.612;6.656;2024-01-30T22:48:38;13.05;;;2.63;;
26269;SDS011;15937;50.612;6.656;2024-01-30T22:52:40;2.92;;;1.85;;
26269;SDS011;15937;50.612;6.656;2024-01-30T22:56:43;2.80;;;1.77;;
26269;SDS011;15937;50.612;6.656;2024-01-30T23:00:46;8.82;;;2.42;;
26269;SDS011;15937;50.612;6.656;2024-01-30T23:04:48;7.73;;;1.97;;
26269;SDS011;15937;50.612;6.656;2024-01-30T23:08:51;8.93;;;2.85;;
26269;SDS011;15937;50.612;6.656;2024-01-30T23:12:53;12.48;;;2.67;;
26269;SDS011;15937;50.612;6.656;2024-01-30T23:16:55;8.23;;;2.67;;
26269;SDS011;15937;50.612;6.656;2024-01-30T23:20:57;4.53;;;2.45;;
26269;SDS011;15937;50.612;6.656;2024-01-30T23:25:00;6.20;;;3.33;;
26269;SDS011;15937;50.612;6.656;2024-01-30T23:29:02;13.90;;;3.23;;
26269;SDS011;15937;50.612;6.656;2024-01-30T23:33:04;5.95;;;2.70;;
26269;SDS011;15937;50.612;6.656;2024-01-30T23:37:06;5.60;;;3.10;;
26269;SDS011;15937;50.612;6.656;2024-01-30T23:41:08;9.20;;;3.53;;
26269;SDS011;15937;50.612;6.656;2024-01-30T23:45:10;4.57;;;2.90;;
26269;SDS011;15937;50.612;6.656;2024-01-30T23:49:14;8.23;;;3.75;;
26269;SDS011;15937;50.612;6.656;2024-01-30T23:53:17;8.48;;;3.55;;
26269;SDS011;15937;50.612;6.656;2024-01-30T23:57:18;5.57;;;3.15;;
